createdAt,value
2023-05-02T00:00:29.591Z,5.82
2023-05-02T00:02:56.534Z,5.03
2023-05-02T00:05:23.902Z,6.00
2023-05-02T00:07:51.602Z,5.50
2023-05-02T00:10:18.934Z,5.70
2023-05-02T00:12:45.667Z,6.15
2023-05-02T00:15:12.415Z,6.18
2023-05-02T00:17:42.314Z,4.82
2023-05-02T00:20:10.641Z,5.57
2023-05-02T00:22:37.740Z,6.18
2023-05-02T00:25:04.996Z,5.68
2023-05-02T00:27:32.141Z,5.18
2023-05-02T00:30:00.421Z,5.80
2023-05-02T00:32:28.124Z,5.30
2023-05-02T00:34:55.011Z,5.82
2023-05-02T00:37:21.657Z,5.60
2023-05-02T00:39:48.335Z,6.22
2023-05-02T00:42:14.987Z,5.10
2023-05-02T00:44:41.596Z,5.50
2023-05-02T00:47:08.396Z,5.50
2023-05-02T00:49:35.014Z,5.70
2023-05-02T00:52:02.475Z,5.65
2023-05-02T00:54:30.969Z,5.60
2023-05-02T00:56:57.591Z,5.50
2023-05-02T00:59:25.084Z,5.88
2023-05-02T01:01:57.442Z,5.90
2023-05-02T01:04:42.655Z,5.07
2023-05-02T01:07:16.340Z,5.05
2023-05-02T01:10:07.262Z,5.38
2023-05-02T01:12:49.549Z,5.90
2023-05-02T01:15:19.008Z,5.82
2023-05-02T01:17:47.105Z,6.38
2023-05-02T01:20:17.440Z,5.75
2023-05-02T01:22:44.692Z,5.85
2023-05-02T01:25:29.798Z,6.13
2023-05-02T01:28:06.116Z,5.38
2023-05-02T01:30:36.378Z,5.97
2023-05-02T01:33:04.474Z,6.10
2023-05-02T01:35:33.825Z,6.18
2023-05-02T01:38:02.604Z,6.25
2023-05-02T01:40:30.285Z,6.00
2023-05-02T01:42:58.644Z,5.40
2023-05-02T01:45:27.612Z,5.38
2023-05-02T01:47:54.893Z,5.97
2023-05-02T01:50:24.706Z,5.75
2023-05-02T01:52:54.026Z,5.95
2023-05-02T01:55:21.337Z,5.80
2023-05-02T01:57:50.646Z,5.65
2023-05-02T02:00:19.485Z,5.15
2023-05-02T02:02:48.982Z,5.53
2023-05-02T02:05:17.721Z,6.63
2023-05-02T02:07:44.850Z,6.35
2023-05-02T02:10:11.888Z,5.95
2023-05-02T02:13:04.439Z,5.72
2023-05-02T02:15:36.055Z,5.63
2023-05-02T02:18:10.218Z,5.25
2023-05-02T02:20:37.697Z,5.53
2023-05-02T02:23:08.362Z,6.10
2023-05-02T02:25:35.960Z,5.57
2023-05-02T02:28:02.693Z,6.13
2023-05-02T02:30:29.409Z,5.50
2023-05-02T02:32:56.062Z,5.35
2023-05-02T02:35:23.610Z,6.57
2023-05-02T02:38:25.726Z,5.40
2023-05-02T02:41:12.292Z,5.80
2023-05-02T02:43:53.767Z,5.38
2023-05-02T02:46:58.205Z,5.63
2023-05-02T02:49:32.400Z,5.20
2023-05-02T02:52:30.127Z,5.63
2023-05-02T02:55:12.730Z,5.28
2023-05-02T02:58:01.923Z,5.57
2023-05-02T03:00:29.194Z,5.95
2023-05-02T03:02:56.762Z,4.93
2023-05-02T03:05:24.465Z,5.20
2023-05-02T03:07:51.907Z,5.45
2023-05-02T03:10:18.630Z,5.88
2023-05-02T03:12:45.387Z,5.38
2023-05-02T03:15:24.706Z,5.95
2023-05-02T03:17:51.372Z,5.55
2023-05-02T03:20:18.175Z,4.88
2023-05-02T03:22:44.846Z,5.43
2023-05-02T03:25:11.453Z,5.55
2023-05-02T03:27:38.078Z,5.43
2023-05-02T03:30:05.383Z,4.82
2023-05-02T03:32:32.081Z,5.50
2023-05-02T03:34:59.342Z,5.28
2023-05-02T03:41:13.144Z,5.72
2023-05-02T03:43:39.814Z,5.43
2023-05-02T03:46:09.281Z,5.22
2023-05-02T03:48:36.554Z,5.65
2023-05-02T03:51:05.677Z,5.65
2023-05-02T03:53:32.421Z,6.00
2023-05-02T03:55:59.285Z,5.97
2023-05-02T03:58:26.883Z,5.38
2023-05-02T04:00:54.444Z,5.60
2023-05-02T04:05:48.506Z,5.53
2023-05-02T04:08:15.561Z,5.97
2023-05-02T04:10:42.185Z,5.78
2023-05-02T04:13:08.791Z,5.85
2023-05-02T04:15:35.533Z,5.53
2023-05-02T04:18:02.196Z,6.18
2023-05-02T04:20:29.466Z,5.78
2023-05-02T04:22:56.102Z,5.85
2023-05-02T04:25:22.711Z,5.20
2023-05-02T04:27:49.346Z,6.07
2023-05-02T04:30:16.210Z,5.95
2023-05-02T04:32:42.962Z,5.57
2023-05-02T04:35:09.985Z,5.95
2023-05-02T04:37:36.702Z,5.55
2023-05-02T04:40:04.254Z,5.53
2023-05-02T04:42:30.875Z,5.68
2023-05-02T04:44:57.507Z,4.80
2023-05-02T04:47:24.165Z,5.47
2023-05-02T04:49:50.852Z,5.60
2023-05-02T04:52:18.585Z,5.30
2023-05-02T04:54:45.278Z,5.13
2023-05-02T04:57:11.888Z,5.55
2023-05-02T04:59:38.590Z,5.35
2023-05-02T05:02:05.552Z,4.70
2023-05-02T05:04:32.295Z,5.28
2023-05-02T05:06:59.066Z,5.32
2023-05-02T05:09:25.957Z,5.53
2023-05-02T05:11:52.572Z,5.40
2023-05-02T05:14:19.227Z,4.85
2023-05-02T05:16:46.452Z,5.68
2023-05-02T05:19:13.199Z,5.47
2023-05-02T05:21:39.854Z,5.40
2023-05-02T05:24:06.713Z,4.88
2023-05-02T05:26:33.380Z,4.88
2023-05-02T05:29:00.011Z,5.40
2023-05-02T05:31:26.735Z,4.90
2023-05-02T05:33:53.551Z,5.65
2023-05-02T05:36:22.801Z,5.25
2023-05-02T05:38:51.397Z,5.47
2023-05-02T05:41:18.010Z,4.82
2023-05-02T05:43:44.702Z,5.15
2023-05-02T05:46:11.339Z,5.70
2023-05-02T05:48:38.004Z,5.35
2023-05-02T05:51:05.834Z,5.30
2023-05-02T05:53:32.974Z,5.15
2023-05-02T05:55:59.783Z,6.25
2023-05-02T05:58:26.409Z,5.53
2023-05-02T06:00:53.305Z,5.20
2023-05-02T06:03:20.028Z,5.63
2023-05-02T06:05:46.990Z,5.70
2023-05-02T06:08:13.666Z,5.40
2023-05-02T06:10:40.273Z,5.47
2023-05-02T06:13:06.969Z,6.20
2023-05-02T06:15:35.352Z,5.57
2023-05-02T06:18:02.010Z,5.93
2023-05-02T06:20:28.849Z,5.82
2023-05-02T06:22:55.622Z,6.18
2023-05-02T06:25:22.326Z,5.97
2023-05-02T06:27:48.974Z,6.35
2023-05-02T06:30:15.714Z,6.13
2023-05-02T06:32:44.021Z,6.25
2023-05-02T06:35:12.065Z,7.20
2023-05-02T06:37:38.770Z,6.35
2023-05-02T06:40:05.931Z,6.07
2023-05-02T06:42:32.556Z,6.18
2023-05-02T06:44:59.173Z,6.55
2023-05-02T06:47:26.317Z,5.93
2023-05-02T06:49:53.734Z,6.53
2023-05-02T06:52:20.451Z,7.20
2023-05-02T06:54:47.146Z,5.82
2023-05-02T06:57:13.832Z,6.28
2023-05-02T06:59:40.536Z,6.00
2023-05-02T07:02:07.967Z,6.13
2023-05-02T07:04:34.631Z,6.97
2023-05-02T07:07:01.467Z,6.63
2023-05-02T07:09:28.057Z,6.72
2023-05-02T07:11:54.689Z,5.78
2023-05-02T07:14:21.714Z,6.10
2023-05-02T07:16:48.429Z,6.97
2023-05-02T07:19:15.451Z,6.20
2023-05-02T07:21:42.107Z,6.47
2023-05-02T07:24:08.802Z,6.53
2023-05-02T07:26:35.763Z,6.22
2023-05-02T07:29:02.436Z,6.60
2023-05-02T07:31:29.339Z,7.10
2023-05-02T07:33:56.083Z,6.50
2023-05-02T07:36:22.718Z,6.60
2023-05-02T07:38:49.311Z,7.47
2023-05-02T07:41:16.060Z,6.45
2023-05-02T07:43:42.684Z,7.00
2023-05-02T07:46:09.435Z,7.70
2023-05-02T07:48:36.126Z,7.03
2023-05-02T07:51:07.329Z,7.13
2023-05-02T07:53:34.267Z,6.88
2023-05-02T07:56:01.339Z,8.07
2023-05-02T07:58:28.251Z,6.40
2023-05-02T08:00:54.986Z,7.50
2023-05-02T08:03:21.888Z,7.55
2023-05-02T08:05:48.869Z,7.53
2023-05-02T08:08:15.507Z,7.30
2023-05-02T08:10:42.184Z,7.10
2023-05-02T08:13:08.844Z,7.43
2023-05-02T08:15:35.711Z,7.47
2023-05-02T08:18:02.917Z,6.95
2023-05-02T08:20:29.701Z,7.22
2023-05-02T08:22:59.293Z,6.65
2023-05-02T08:25:26.775Z,7.38
2023-05-02T08:27:53.429Z,7.35
2023-05-02T08:30:20.562Z,7.35
2023-05-02T08:32:47.365Z,6.90
2023-05-02T08:35:14.480Z,7.07
2023-05-02T08:37:41.171Z,6.38
2023-05-02T08:40:12.382Z,7.10
2023-05-02T08:42:42.626Z,7.40
2023-05-02T08:45:11.792Z,6.50
2023-05-02T08:47:41.013Z,7.20
2023-05-02T08:50:12.497Z,7.07
2023-05-02T08:52:39.733Z,7.55
2023-05-02T08:55:07.466Z,8.90
2023-05-02T08:57:34.567Z,6.35
2023-05-02T09:00:01.844Z,8.00
2023-05-02T09:02:41.271Z,7.20
2023-05-02T09:05:10.269Z,7.65
2023-05-02T09:07:45.948Z,6.53
2023-05-02T09:10:13.103Z,7.32
2023-05-02T09:12:40.468Z,7.18
2023-05-02T09:15:11.239Z,8.25
2023-05-02T09:17:45.332Z,7.47
2023-05-02T09:20:16.536Z,7.40
2023-05-02T09:22:50.898Z,7.15
2023-05-02T09:25:18.268Z,7.45
2023-05-02T09:27:55.202Z,7.07
2023-05-02T09:30:23.903Z,6.82
2023-05-02T09:32:52.312Z,6.68
2023-05-02T09:35:23.775Z,7.13
2023-05-02T09:37:55.496Z,7.20
2023-05-02T09:40:23.231Z,7.00
2023-05-02T09:42:50.757Z,7.43
2023-05-02T09:45:21.902Z,7.35
2023-05-02T09:47:49.235Z,7.07
2023-05-02T09:50:35.189Z,7.40
2023-05-02T09:53:06.314Z,7.43
2023-05-02T09:55:33.464Z,7.45
2023-05-02T09:58:01.466Z,7.28
2023-05-02T10:00:41.562Z,7.63
2023-05-02T10:03:08.923Z,7.43
2023-05-02T10:05:40.351Z,7.85
2023-05-02T10:08:08.999Z,6.93
2023-05-02T10:10:37.236Z,6.22
2023-05-02T10:13:05.180Z,6.95
2023-05-02T10:15:33.721Z,8.15
2023-05-02T10:18:01.655Z,7.70
2023-05-02T10:20:34.934Z,8.30
2023-05-02T10:23:02.275Z,4.88
2023-05-02T10:25:29.595Z,7.28
2023-05-02T10:28:00.390Z,7.40
2023-05-02T10:30:27.564Z,7.28
2023-05-02T10:32:54.810Z,7.60
2023-05-02T10:35:21.893Z,7.38
2023-05-02T10:37:49.743Z,7.38
2023-05-02T10:40:16.998Z,6.93
2023-05-02T10:42:45.940Z,7.03
2023-05-02T10:45:32.546Z,6.90
2023-05-02T10:48:18.110Z,7.88
2023-05-02T10:50:48.964Z,8.18
2023-05-02T10:53:25.208Z,9.90
2023-05-02T10:56:10.793Z,11.25
2023-05-02T10:58:37.867Z,13.10
2023-05-02T11:01:23.504Z,15.80
2023-05-02T11:04:00.541Z,15.98
2023-05-02T11:06:28.883Z,13.52
2023-05-02T11:09:14.992Z,13.20
2023-05-02T11:11:43.820Z,13.27
2023-05-02T11:14:11.763Z,15.77
2023-05-02T11:17:06.266Z,17.30
2023-05-02T11:22:20.872Z,17.63
2023-05-02T11:24:49.122Z,19.55
2023-05-02T11:27:33.862Z,21.92
2023-05-02T11:30:09.218Z,20.17
2023-05-02T11:32:53.435Z,21.17
2023-05-02T11:38:00.788Z,20.27
2023-05-02T11:40:28.508Z,21.45
2023-05-02T11:42:56.638Z,22.48
2023-05-02T11:45:32.373Z,23.70
2023-05-02T11:47:59.080Z,20.55
2023-05-02T11:50:27.574Z,21.20
2023-05-02T11:52:54.265Z,21.75
2023-05-02T11:55:20.945Z,21.20
2023-05-02T11:57:47.645Z,19.58
2023-05-02T12:00:15.010Z,17.65
2023-05-02T12:02:47.048Z,19.73
2023-05-02T12:05:14.953Z,18.23
2023-05-02T12:07:48.882Z,18.75
2023-05-02T12:12:44.241Z,16.30
2023-05-02T12:15:12.961Z,16.90
2023-05-02T12:17:43.463Z,17.27
2023-05-02T12:20:11.196Z,16.17
2023-05-02T12:22:38.434Z,16.38
2023-05-02T12:25:06.237Z,15.63
2023-05-02T12:27:36.066Z,14.07
2023-05-02T12:30:03.598Z,13.05
2023-05-02T12:32:32.429Z,13.15
2023-05-02T12:35:00.487Z,11.45
2023-05-02T12:37:28.168Z,11.43
2023-05-02T12:39:55.609Z,12.52
2023-05-02T12:42:24.111Z,10.93
2023-05-02T12:44:56.762Z,10.60
2023-05-02T12:47:24.846Z,10.23
2023-05-02T12:49:52.216Z,9.68
2023-05-02T12:52:20.069Z,9.10
2023-05-02T12:54:47.177Z,9.20
2023-05-02T12:57:26.737Z,9.63
2023-05-02T12:59:57.011Z,9.35
2023-05-02T13:02:24.608Z,9.50
2023-05-02T13:04:52.165Z,8.65
2023-05-02T13:07:20.304Z,9.50
2023-05-02T13:09:47.327Z,9.82
2023-05-02T13:12:14.440Z,9.65
2023-05-02T13:14:41.615Z,9.30
2023-05-02T13:17:08.976Z,9.93
2023-05-02T13:19:37.344Z,9.55
2023-05-02T13:22:05.909Z,9.38
2023-05-02T13:24:33.042Z,10.73
2023-05-02T13:27:00.195Z,7.60
2023-05-02T13:29:27.275Z,7.97
2023-05-02T13:31:54.370Z,7.57
2023-05-02T13:34:21.351Z,6.35
2023-05-02T13:36:48.416Z,6.53
2023-05-02T13:39:15.463Z,6.00
2023-05-02T13:41:42.575Z,5.43
2023-05-02T13:44:09.888Z,6.13
2023-05-02T13:46:37.848Z,5.93
2023-05-02T13:49:05.633Z,5.82
2023-05-02T13:51:33.290Z,5.25
2023-05-02T13:54:01.102Z,5.88
2023-05-02T13:56:28.313Z,5.18
2023-05-02T13:58:55.598Z,5.57
2023-05-02T14:01:22.718Z,5.45
2023-05-02T14:03:50.014Z,5.00
2023-05-02T14:06:17.486Z,5.55
2023-05-02T14:08:45.065Z,6.07
2023-05-02T14:11:12.114Z,5.82
2023-05-02T14:13:39.231Z,5.95
2023-05-02T14:16:06.486Z,5.68
2023-05-02T14:18:33.656Z,6.28
2023-05-02T14:21:00.988Z,4.97
2023-05-02T14:23:31.172Z,4.95
2023-05-02T14:25:58.466Z,5.18
2023-05-02T14:28:26.944Z,4.97
2023-05-02T14:30:54.033Z,5.05
2023-05-02T14:33:21.150Z,5.43
2023-05-02T14:35:49.141Z,5.18
2023-05-02T14:38:16.304Z,4.75
2023-05-02T14:40:43.478Z,5.20
2023-05-02T14:43:14.260Z,4.85
2023-05-02T14:45:41.432Z,5.55
2023-05-02T14:48:08.784Z,4.95
2023-05-02T14:50:37.457Z,5.03
2023-05-02T14:53:04.513Z,5.45
2023-05-02T14:55:31.577Z,5.00
2023-05-02T14:57:58.641Z,5.22
2023-05-02T15:00:25.825Z,5.28
2023-05-02T15:02:53.028Z,5.35
2023-05-02T15:05:20.240Z,4.53
2023-05-02T15:07:47.360Z,4.82
2023-05-02T15:10:14.496Z,4.15
2023-05-02T15:12:43.097Z,4.35
2023-05-02T15:15:11.175Z,4.03
2023-05-02T15:17:38.294Z,4.43
2023-05-02T15:20:05.797Z,4.63
2023-05-02T15:22:32.851Z,4.35
2023-05-02T15:25:00.263Z,4.35
2023-05-02T15:27:27.901Z,4.35
2023-05-02T15:29:55.017Z,3.78
2023-05-02T15:32:22.192Z,3.60
2023-05-02T15:34:49.357Z,3.63
2023-05-02T15:37:16.413Z,3.58
2023-05-02T15:39:43.478Z,3.72
2023-05-02T15:42:10.961Z,3.75
2023-05-02T15:44:38.065Z,3.72
2023-05-02T15:47:05.505Z,3.28
2023-05-02T15:49:33.373Z,2.95
2023-05-02T15:52:01.721Z,3.47
2023-05-02T15:54:28.923Z,2.78
2023-05-02T15:56:56.167Z,3.55
2023-05-02T15:59:23.384Z,3.08
2023-05-02T16:01:50.661Z,3.42
2023-05-02T16:04:17.752Z,3.28
2023-05-02T16:06:44.977Z,3.05
2023-05-02T16:09:12.795Z,3.42
2023-05-02T16:11:39.900Z,3.35
2023-05-02T16:14:06.564Z,3.20
2023-05-02T16:16:34.330Z,3.60
2023-05-02T16:19:01.429Z,3.33
2023-05-02T16:21:28.520Z,3.70
2023-05-02T16:23:55.656Z,3.17
2023-05-02T16:26:22.779Z,3.30
2023-05-02T16:28:49.843Z,3.72
2023-05-02T16:31:17.121Z,4.00
2023-05-02T16:33:44.315Z,3.75
2023-05-02T16:36:11.581Z,4.35
2023-05-02T16:38:38.284Z,4.25
2023-05-02T16:41:06.756Z,4.60
2023-05-02T16:43:33.641Z,5.60
2023-05-02T16:46:01.572Z,5.38
2023-05-02T16:48:28.724Z,4.78
2023-05-02T16:50:55.958Z,5.28
2023-05-02T16:53:22.808Z,5.03
2023-05-02T16:55:49.683Z,5.43
2023-05-02T16:58:16.526Z,5.97
2023-05-02T17:00:43.251Z,6.13
2023-05-02T17:03:10.334Z,5.75
2023-05-02T17:05:37.647Z,5.20
2023-05-02T17:08:04.690Z,5.20
2023-05-02T17:10:31.784Z,6.30
2023-05-02T17:12:59.160Z,5.40
2023-05-02T17:15:26.312Z,5.50
2023-05-02T17:17:52.997Z,5.80
2023-05-02T17:20:20.436Z,6.18
2023-05-02T17:22:47.611Z,5.85
2023-05-02T17:25:14.773Z,6.47
2023-05-02T17:27:41.932Z,6.55
2023-05-02T17:30:09.431Z,6.50
2023-05-02T17:32:37.528Z,6.45
2023-05-02T17:35:04.807Z,6.50
2023-05-02T17:37:32.776Z,6.57
2023-05-02T17:40:02.148Z,6.47
2023-05-02T17:42:29.542Z,5.82
2023-05-02T17:44:56.664Z,4.78
2023-05-02T17:47:25.545Z,5.13
2023-05-02T17:49:53.669Z,4.95
2023-05-02T17:52:21.349Z,5.50
2023-05-02T17:54:48.433Z,5.95
2023-05-02T17:57:15.878Z,5.68
2023-05-02T17:59:42.994Z,5.82
2023-05-02T18:02:10.496Z,6.10
2023-05-02T18:04:37.704Z,6.05
2023-05-02T18:07:06.107Z,6.63
2023-05-02T18:09:33.494Z,6.47
2023-05-02T18:12:03.603Z,5.55
2023-05-02T18:14:30.708Z,7.28
2023-05-02T18:16:58.003Z,7.55
2023-05-02T18:19:25.106Z,5.80
2023-05-02T18:21:52.443Z,6.95
2023-05-02T18:24:19.536Z,6.32
2023-05-02T18:26:48.957Z,5.72
2023-05-02T18:29:16.011Z,5.65
2023-05-02T18:31:43.214Z,5.78
2023-05-02T18:34:10.270Z,6.32
2023-05-02T18:36:37.445Z,6.40
2023-05-02T18:39:04.516Z,6.40
2023-05-02T18:41:31.574Z,5.28
2023-05-02T18:44:00.515Z,5.55
2023-05-02T18:46:27.863Z,5.40
2023-05-02T18:48:54.882Z,7.05
2023-05-02T18:51:22.524Z,5.85
2023-05-02T18:53:49.651Z,5.80
2023-05-02T18:56:16.756Z,6.82
2023-05-02T18:58:43.791Z,6.40
2023-05-02T19:01:18.912Z,6.30
2023-05-02T19:03:46.171Z,6.03
2023-05-02T19:06:13.629Z,6.90
2023-05-02T19:08:40.700Z,6.45
2023-05-02T19:11:08.914Z,6.18
2023-05-02T19:13:36.118Z,6.43
2023-05-02T19:16:03.695Z,6.93
2023-05-02T19:18:30.895Z,6.63
2023-05-02T19:20:58.510Z,7.22
2023-05-02T19:23:25.557Z,7.75
2023-05-02T19:25:52.835Z,7.68
2023-05-02T19:28:19.901Z,7.90
2023-05-02T19:30:47.125Z,7.85
2023-05-02T19:33:14.269Z,8.57
2023-05-02T19:35:41.434Z,7.90
2023-05-02T19:38:09.135Z,8.15
2023-05-02T19:40:36.178Z,7.72
2023-05-02T19:43:03.205Z,8.45
2023-05-02T19:45:30.261Z,9.77
2023-05-02T19:47:57.353Z,8.40
2023-05-02T19:50:26.118Z,8.77
2023-05-02T19:52:53.245Z,9.77
2023-05-02T19:55:20.792Z,8.43
2023-05-02T19:57:48.692Z,9.35
2023-05-02T20:00:16.023Z,9.48
2023-05-02T20:02:43.197Z,10.20
2023-05-02T20:05:10.543Z,9.60
2023-05-02T20:07:37.616Z,9.70
2023-05-02T20:10:05.064Z,10.30
2023-05-02T20:12:32.346Z,11.00
2023-05-02T20:14:59.432Z,11.20
2023-05-02T20:17:26.897Z,10.48
2023-05-02T20:19:53.983Z,9.48
2023-05-02T20:22:21.267Z,10.23
2023-05-02T20:24:48.356Z,8.80
2023-05-02T20:27:15.508Z,11.75
2023-05-02T20:29:42.548Z,10.13
2023-05-02T20:32:09.613Z,9.15
2023-05-02T20:34:36.831Z,8.98
2023-05-02T20:37:06.782Z,9.35
2023-05-02T20:39:33.898Z,9.63
2023-05-02T20:42:01.400Z,9.07
2023-05-02T20:44:30.044Z,9.15
2023-05-02T20:46:57.109Z,9.25
2023-05-02T20:49:24.175Z,9.88
2023-05-02T20:51:51.549Z,9.50
2023-05-02T20:54:18.889Z,10.52
2023-05-02T20:56:46.248Z,10.68
2023-05-02T20:59:13.323Z,10.23
2023-05-02T21:01:40.383Z,10.82
2023-05-02T21:04:07.523Z,11.13
2023-05-02T21:06:34.830Z,11.32
2023-05-02T21:09:02.482Z,11.27
2023-05-02T21:11:29.637Z,11.90
2023-05-02T21:13:56.716Z,12.00
2023-05-02T21:16:23.908Z,10.45
2023-05-02T21:18:50.949Z,12.02
2023-05-02T21:21:18.009Z,11.63
2023-05-02T21:23:45.190Z,12.20
2023-05-02T21:26:12.365Z,12.38
2023-05-02T21:28:39.996Z,13.38
2023-05-02T21:31:07.992Z,12.82
2023-05-02T21:33:35.641Z,12.27
2023-05-02T21:36:02.680Z,12.05
2023-05-02T21:38:29.764Z,12.38
2023-05-02T21:40:56.801Z,11.32
2023-05-02T21:43:23.869Z,12.30
2023-05-02T21:45:51.018Z,13.25
2023-05-02T21:48:18.119Z,13.35
2023-05-02T21:50:45.348Z,13.85
2023-05-02T21:53:12.413Z,13.05
2023-05-02T21:55:39.735Z,13.00
2023-05-02T21:58:07.566Z,13.32
2023-05-02T22:00:34.855Z,13.35
2023-05-02T22:03:07.354Z,14.07
2023-05-02T22:05:39.707Z,14.82
2023-05-02T22:08:09.982Z,15.60
2023-05-02T22:10:41.759Z,13.40
2023-05-02T22:13:13.920Z,13.52
2023-05-02T22:15:45.513Z,13.32
2023-05-02T22:18:14.113Z,14.02
2023-05-02T22:20:42.112Z,14.43
2023-05-02T22:23:09.507Z,14.98
2023-05-02T22:25:39.056Z,15.77
2023-05-02T22:28:06.987Z,16.98
2023-05-02T22:30:34.153Z,14.48
2023-05-02T22:33:01.578Z,15.02
2023-05-02T22:35:28.438Z,14.82
2023-05-02T22:37:55.390Z,17.00
2023-05-02T22:40:22.030Z,16.42
2023-05-02T22:42:48.693Z,15.55
2023-05-02T22:45:15.486Z,16.60
2023-05-02T22:47:42.146Z,15.23
2023-05-02T22:50:10.121Z,16.38
2023-05-02T22:52:38.056Z,16.15
2023-05-02T22:55:09.266Z,14.95
2023-05-02T22:57:36.961Z,15.82
2023-05-02T23:00:09.210Z,16.55
2023-05-02T23:02:36.695Z,15.05
2023-05-02T23:05:04.366Z,15.70
2023-05-02T23:07:31.178Z,15.90
2023-05-02T23:09:57.820Z,14.73
2023-05-02T23:12:24.458Z,15.70
2023-05-02T23:14:51.190Z,14.68
2023-05-02T23:17:17.857Z,15.43
2023-05-02T23:19:44.547Z,15.57
2023-05-02T23:22:11.377Z,15.90
2023-05-02T23:24:38.289Z,16.60
2023-05-02T23:27:07.479Z,15.30
2023-05-02T23:29:34.179Z,15.45
2023-05-02T23:32:01.485Z,14.48
2023-05-02T23:34:28.292Z,15.40
2023-05-02T23:36:55.175Z,14.02
2023-05-02T23:39:21.862Z,13.85
2023-05-02T23:41:48.514Z,14.85
2023-05-02T23:44:15.140Z,14.80
2023-05-02T23:46:41.776Z,13.70
2023-05-02T23:49:08.455Z,12.75
2023-05-02T23:51:35.105Z,12.30
2023-05-02T23:54:01.852Z,13.35
2023-05-02T23:56:28.505Z,14.15
2023-05-02T23:58:55.514Z,13.60
